sensor_id;sensor_type;location;lat;lon;timestamp;pressure;altitude;pressure_sealevel;temperature;humidity
46291;BME280;32023;44.444;26.006;2023-07-13T00:01:35;100234.66;;;31.26;46.21
46291;BME280;32023;44.444;26.006;2023-07-13T00:04:05;100238.31;;;31.34;45.78
46291;BME280;32023;44.444;26.006;2023-07-13T00:06:35;100225.75;;;31.42;46.00
46291;BME280;32023;44.444;26.006;2023-07-13T00:09:13;100227.41;;;31.54;45.43
46291;BME280;32023;44.444;26.006;2023-07-13T00:11:41;100223.28;;;31.33;45.96
46291;BME280;32023;44.444;26.006;2023-07-13T00:14:07;100218.78;;;31.18;46.23
46291;BME280;32023;44.444;26.006;2023-07-13T00:16:36;100218.78;;;31.18;46.73
46291;BME280;32023;44.444;26.006;2023-07-13T00:19:02;100224.47;;;31.29;46.51
46291;BME280;32023;44.444;26.006;2023-07-13T00:21:29;100217.56;;;31.19;46.96
46291;BME280;32023;44.444;26.006;2023-07-13T00:24:00;100219.59;;;31.19;47.06
46291;BME280;32023;44.444;26.006;2023-07-13T00:26:27;100220.34;;;31.05;47.37
46291;BME280;32023;44.444;26.006;2023-07-13T00:28:53;100220.34;;;31.01;47.13
46291;BME280;32023;44.444;26.006;2023-07-13T00:31:20;100219.13;;;30.99;47.54
46291;BME280;32023;44.444;26.006;2023-07-13T00:33:57;100215.41;;;30.95;47.79
46291;BME280;32023;44.444;26.006;2023-07-13T00:36:26;100214.53;;;30.77;47.82
46291;BME280;32023;44.444;26.006;2023-07-13T00:38:56;100213.69;;;30.73;48.36
46291;BME280;32023;44.444;26.006;2023-07-13T00:41:22;100216.91;;;30.68;48.32
46291;BME280;32023;44.444;26.006;2023-07-13T00:43:49;100210.47;;;30.74;48.29
46291;BME280;32023;44.444;26.006;2023-07-13T00:46:35;100106.19;;;30.06;48.10
46291;BME280;32023;44.444;26.006;2023-07-13T00:49:10;100209.72;;;30.95;47.86
46291;BME280;32023;44.444;26.006;2023-07-13T00:51:43;100217.03;;;30.89;48.02
46291;BME280;32023;44.444;26.006;2023-07-13T00:54:33;100212.09;;;30.79;48.15
46291;BME280;32023;44.444;26.006;2023-07-13T00:57:04;100211.25;;;30.75;48.83
46291;BME280;32023;44.444;26.006;2023-07-13T00:59:34;100215.34;;;30.74;48.73
46291;BME280;32023;44.444;26.006;2023-07-13T01:02:04;100212.09;;;30.82;48.65
46291;BME280;32023;44.444;26.006;2023-07-13T01:04:31;100212.13;;;30.86;48.54
46291;BME280;32023;44.444;26.006;2023-07-13T01:06:58;100224.25;;;30.69;48.84
46291;BME280;32023;44.444;26.006;2023-07-13T01:09:28;100223.38;;;30.57;49.57
46291;BME280;32023;44.444;26.006;2023-07-13T01:11:54;100231.47;;;30.55;49.75
46291;BME280;32023;44.444;26.006;2023-07-13T01:14:20;100227.44;;;30.60;49.23
46291;BME280;32023;44.444;26.006;2023-07-13T01:16:56;100220.41;;;30.40;49.66
46291;BME280;32023;44.444;26.006;2023-07-13T01:19:44;100215.81;;;30.18;50.38
46291;BME280;32023;44.444;26.006;2023-07-13T01:22:18;100217.06;;;30.24;49.81
46291;BME280;32023;44.444;26.006;2023-07-13T01:24:48;100216.28;;;30.30;49.47
46291;BME280;32023;44.444;26.006;2023-07-13T01:27:21;100222.38;;;30.29;49.67
46291;BME280;32023;44.444;26.006;2023-07-13T01:29:54;100220.31;;;30.26;50.03
46291;BME280;32023;44.444;26.006;2023-07-13T01:32:28;100221.63;;;30.39;49.55
46291;BME280;32023;44.444;26.006;2023-07-13T01:34:54;100217.66;;;30.50;49.61
46291;BME280;32023;44.444;26.006;2023-07-13T01:37:25;100225.91;;;30.80;49.13
46291;BME280;32023;44.444;26.006;2023-07-13T01:40:04;100208.97;;;31.05;48.04
46291;BME280;32023;44.444;26.006;2023-07-13T01:42:30;100215.50;;;31.16;47.29
46291;BME280;32023;44.444;26.006;2023-07-13T01:44:58;100211.31;;;30.82;48.07
46291;BME280;32023;44.444;26.006;2023-07-13T01:47:25;100199.81;;;30.53;49.12
46291;BME280;32023;44.444;26.006;2023-07-13T01:49:52;100199.72;;;30.39;49.50
46291;BME280;32023;44.444;26.006;2023-07-13T01:52:41;100196.94;;;30.46;49.24
46291;BME280;32023;44.444;26.006;2023-07-13T01:55:15;100198.94;;;30.46;48.42
46291;BME280;32023;44.444;26.006;2023-07-13T01:57:41;100194.09;;;30.46;48.38
46291;BME280;32023;44.444;26.006;2023-07-13T02:00:09;100202.63;;;30.46;48.53
46291;BME280;32023;44.444;26.006;2023-07-13T02:02:36;100201.81;;;30.53;48.19
46291;BME280;32023;44.444;26.006;2023-07-13T02:05:02;100208.72;;;30.55;48.39
46291;BME280;32023;44.444;26.006;2023-07-13T02:07:29;100217.47;;;30.26;48.84
46291;BME280;32023;44.444;26.006;2023-07-13T02:09:55;100207.56;;;29.58;50.29
46291;BME280;32023;44.444;26.006;2023-07-13T02:12:23;100214.66;;;29.01;51.60
46291;BME280;32023;44.444;26.006;2023-07-13T02:14:49;100217.63;;;28.22;53.89
46291;BME280;32023;44.444;26.006;2023-07-13T02:17:20;100224.50;;;27.49;56.58
46291;BME280;32023;44.444;26.006;2023-07-13T02:19:46;100228.22;;;26.92;58.61
46291;BME280;32023;44.444;26.006;2023-07-13T02:22:13;100230.34;;;26.60;60.01
46291;BME280;32023;44.444;26.006;2023-07-13T02:24:41;100233.56;;;26.24;61.43
46291;BME280;32023;44.444;26.006;2023-07-13T02:27:19;100227.13;;;25.76;63.53
46291;BME280;32023;44.444;26.006;2023-07-13T02:29:46;100217.28;;;25.39;64.74
46291;BME280;32023;44.444;26.006;2023-07-13T02:32:12;100220.88;;;25.24;65.36
46291;BME280;32023;44.444;26.006;2023-07-13T02:34:40;100224.53;;;25.24;65.43
46291;BME280;32023;44.444;26.006;2023-07-13T02:37:20;100222.34;;;25.18;65.76
46291;BME280;32023;44.444;26.006;2023-07-13T02:39:47;100235.56;;;25.02;66.79
46291;BME280;32023;44.444;26.006;2023-07-13T02:42:14;100235.06;;;24.84;68.54
46291;BME280;32023;44.444;26.006;2023-07-13T02:44:43;100232.31;;;24.60;70.21
46291;BME280;32023;44.444;26.006;2023-07-13T02:47:09;100228.13;;;24.41;71.33
46291;BME280;32023;44.444;26.006;2023-07-13T02:49:38;100219.38;;;24.31;72.42
46291;BME280;32023;44.444;26.006;2023-07-13T02:52:08;100222.53;;;24.29;72.36
46291;BME280;32023;44.444;26.006;2023-07-13T02:54:34;100213.38;;;24.32;72.17
46291;BME280;32023;44.444;26.006;2023-07-13T02:57:03;100211.03;;;24.34;72.39
46291;BME280;32023;44.444;26.006;2023-07-13T02:59:30;100207.88;;;24.36;72.31
46291;BME280;32023;44.444;26.006;2023-07-13T03:02:05;100211.47;;;24.36;72.35
46291;BME280;32023;44.444;26.006;2023-07-13T03:04:37;100211.03;;;24.34;72.91
46291;BME280;32023;44.444;26.006;2023-07-13T03:07:18;100211.16;;;24.26;73.16
46291;BME280;32023;44.444;26.006;2023-07-13T03:09:45;100215.41;;;24.20;73.36
46291;BME280;32023;44.444;26.006;2023-07-13T03:12:11;100208.03;;;24.15;73.44
46291;BME280;32023;44.444;26.006;2023-07-13T03:14:38;100214.47;;;24.16;73.43
46291;BME280;32023;44.444;26.006;2023-07-13T03:17:04;100212.22;;;24.09;73.48
46291;BME280;32023;44.444;26.006;2023-07-13T03:19:34;100217.28;;;24.04;73.79
46291;BME280;32023;44.444;26.006;2023-07-13T03:22:00;100221.25;;;24.03;73.75
46291;BME280;32023;44.444;26.006;2023-07-13T03:24:26;100223.38;;;24.06;73.44
46291;BME280;32023;44.444;26.006;2023-07-13T03:26:56;100221.84;;;24.08;73.32
46291;BME280;32023;44.444;26.006;2023-07-13T03:29:22;100231.34;;;24.16;72.91
46291;BME280;32023;44.444;26.006;2023-07-13T03:31:49;100222.69;;;24.21;72.61
46291;BME280;32023;44.444;26.006;2023-07-13T03:34:17;100226.88;;;24.27;72.32
46291;BME280;32023;44.444;26.006;2023-07-13T03:36:44;100225.22;;;24.26;72.40
46291;BME280;32023;44.444;26.006;2023-07-13T03:39:13;100229.94;;;24.22;72.62
46291;BME280;32023;44.444;26.006;2023-07-13T03:41:55;100231.47;;;24.19;72.85
46291;BME280;32023;44.444;26.006;2023-07-13T03:44:22;100225.00;;;24.19;72.93
46291;BME280;32023;44.444;26.006;2023-07-13T03:46:49;100220.31;;;24.23;72.50
46291;BME280;32023;44.444;26.006;2023-07-13T03:49:39;100219.59;;;24.26;71.95
46291;BME280;32023;44.444;26.006;2023-07-13T03:52:06;100214.91;;;24.30;72.07
46291;BME280;32023;44.444;26.006;2023-07-13T03:54:35;100227.09;;;24.34;71.87
46291;BME280;32023;44.444;26.006;2023-07-13T03:57:01;100220.03;;;24.40;71.91
46291;BME280;32023;44.444;26.006;2023-07-13T03:59:30;100220.28;;;24.47;71.84
46291;BME280;32023;44.444;26.006;2023-07-13T04:01:57;100226.81;;;24.51;71.97
46291;BME280;32023;44.444;26.006;2023-07-13T04:04:29;100226.22;;;24.58;71.82
46291;BME280;32023;44.444;26.006;2023-07-13T04:07:01;100224.69;;;24.60;71.63
46291;BME280;32023;44.444;26.006;2023-07-13T04:09:31;100227.34;;;24.69;70.78
46291;BME280;32023;44.444;26.006;2023-07-13T04:11:57;100234.75;;;24.73;70.25
46291;BME280;32023;44.444;26.006;2023-07-13T04:14:23;100239.38;;;24.81;69.55
46291;BME280;32023;44.444;26.006;2023-07-13T04:16:54;100240.09;;;24.90;69.36
46291;BME280;32023;44.444;26.006;2023-07-13T04:19:23;100241.47;;;24.97;69.38
46291;BME280;32023;44.444;26.006;2023-07-13T04:21:49;100251.75;;;25.05;69.27
46291;BME280;32023;44.444;26.006;2023-07-13T04:24:15;100245.63;;;25.15;68.99
46291;BME280;32023;44.444;26.006;2023-07-13T04:26:44;100254.00;;;25.27;68.58
46291;BME280;32023;44.444;26.006;2023-07-13T04:29:10;100234.91;;;25.36;68.38
46291;BME280;32023;44.444;26.006;2023-07-13T04:31:37;100240.38;;;25.45;68.19
46291;BME280;32023;44.444;26.006;2023-07-13T04:34:07;100250.81;;;25.56;67.84
46291;BME280;32023;44.444;26.006;2023-07-13T04:36:36;100245.34;;;25.63;67.07
46291;BME280;32023;44.444;26.006;2023-07-13T04:39:03;100251.59;;;25.72;66.82
46291;BME280;32023;44.444;26.006;2023-07-13T04:41:30;100261.16;;;25.83;66.41
46291;BME280;32023;44.444;26.006;2023-07-13T04:43:56;100267.81;;;25.91;66.26
46291;BME280;32023;44.444;26.006;2023-07-13T04:46:22;100268.00;;;25.98;65.89
46291;BME280;32023;44.444;26.006;2023-07-13T04:48:49;100272.16;;;26.04;65.60
46291;BME280;32023;44.444;26.006;2023-07-13T04:51:19;100272.00;;;26.13;64.98
46291;BME280;32023;44.444;26.006;2023-07-13T04:53:46;100257.56;;;26.18;63.99
46291;BME280;32023;44.444;26.006;2023-07-13T04:56:14;100261.34;;;26.22;63.71
46291;BME280;32023;44.444;26.006;2023-07-13T04:58:44;100258.59;;;26.25;63.89
46291;BME280;32023;44.444;26.006;2023-07-13T05:01:13;100261.56;;;26.32;63.75
46291;BME280;32023;44.444;26.006;2023-07-13T05:03:42;100265.03;;;26.42;63.61
46291;BME280;32023;44.444;26.006;2023-07-13T05:06:11;100271.66;;;26.49;63.28
46291;BME280;32023;44.444;26.006;2023-07-13T05:08:49;100263.25;;;26.53;62.75
46291;BME280;32023;44.444;26.006;2023-07-13T05:11:18;100273.09;;;26.59;62.00
46291;BME280;32023;44.444;26.006;2023-07-13T05:13:49;100274.03;;;26.66;61.54
46291;BME280;32023;44.444;26.006;2023-07-13T05:16:15;100268.13;;;26.71;61.39
46291;BME280;32023;44.444;26.006;2023-07-13T05:18:45;100269.38;;;26.74;61.51
46291;BME280;32023;44.444;26.006;2023-07-13T05:21:29;100277.94;;;26.77;62.00
46291;BME280;32023;44.444;26.006;2023-07-13T05:24:26;100277.22;;;26.80;61.91
46291;BME280;32023;44.444;26.006;2023-07-13T05:26:52;100270.63;;;26.92;61.88
46291;BME280;32023;44.444;26.006;2023-07-13T05:29:40;100276.84;;;27.01;60.90
46291;BME280;32023;44.444;26.006;2023-07-13T05:32:10;100281.09;;;27.11;60.49
46291;BME280;32023;44.444;26.006;2023-07-13T05:34:36;100284.50;;;27.20;60.39
46291;BME280;32023;44.444;26.006;2023-07-13T05:37:12;100279.00;;;27.27;59.82
46291;BME280;32023;44.444;26.006;2023-07-13T05:39:38;100288.06;;;27.36;59.17
46291;BME280;32023;44.444;26.006;2023-07-13T05:42:07;100291.50;;;27.45;58.61
46291;BME280;32023;44.444;26.006;2023-07-13T05:44:34;100289.66;;;27.53;58.33
46291;BME280;32023;44.444;26.006;2023-07-13T05:47:03;100289.38;;;27.61;58.27
46291;BME280;32023;44.444;26.006;2023-07-13T05:49:31;100286.31;;;27.70;57.93
46291;BME280;32023;44.444;26.006;2023-07-13T05:51:57;100291.72;;;27.79;57.48
46291;BME280;32023;44.444;26.006;2023-07-13T05:54:27;100295.16;;;27.91;56.87
46291;BME280;32023;44.444;26.006;2023-07-13T05:57:20;100305.47;;;28.03;56.64
46291;BME280;32023;44.444;26.006;2023-07-13T05:59:49;100303.25;;;28.12;56.56
46291;BME280;32023;44.444;26.006;2023-07-13T06:02:21;100309.09;;;28.22;56.57
46291;BME280;32023;44.444;26.006;2023-07-13T06:08:24;100309.50;;;28.47;57.21
46291;BME280;32023;44.444;26.006;2023-07-13T06:10:50;100306.41;;;28.59;56.94
46291;BME280;32023;44.444;26.006;2023-07-13T06:21:45;100300.50;;;28.98;53.96
46291;BME280;32023;44.444;26.006;2023-07-13T06:24:59;100309.53;;;29.07;52.34
46291;BME280;32023;44.444;26.006;2023-07-13T06:30:54;100308.25;;;29.31;51.11
46291;BME280;32023;44.444;26.006;2023-07-13T06:33:40;100295.41;;;29.44;50.87
46291;BME280;32023;44.444;26.006;2023-07-13T06:36:07;100298.81;;;29.56;50.83
46291;BME280;32023;44.444;26.006;2023-07-13T06:38:50;100293.63;;;29.65;50.24
46291;BME280;32023;44.444;26.006;2023-07-13T06:41:19;100294.50;;;29.73;49.64
46291;BME280;32023;44.444;26.006;2023-07-13T06:43:46;100301.03;;;29.77;49.74
46291;BME280;32023;44.444;26.006;2023-07-13T06:46:12;100299.06;;;29.85;49.18
46291;BME280;32023;44.444;26.006;2023-07-13T06:48:38;100304.88;;;29.95;48.75
46291;BME280;32023;44.444;26.006;2023-07-13T06:51:05;100300.16;;;30.10;49.14
46291;BME280;32023;44.444;26.006;2023-07-13T06:53:39;100301.47;;;30.23;48.45
46291;BME280;32023;44.444;26.006;2023-07-13T06:56:23;100291.00;;;30.34;48.04
46291;BME280;32023;44.444;26.006;2023-07-13T06:58:49;100293.16;;;30.48;48.49
46291;BME280;32023;44.444;26.006;2023-07-13T07:01:19;100295.69;;;30.64;48.08
46291;BME280;32023;44.444;26.006;2023-07-13T07:03:45;100290.91;;;30.78;47.53
46291;BME280;32023;44.444;26.006;2023-07-13T07:06:19;100281.22;;;30.93;46.60
46291;BME280;32023;44.444;26.006;2023-07-13T07:09:10;100290.25;;;31.06;46.33
46291;BME280;32023;44.444;26.006;2023-07-13T07:11:36;100289.91;;;31.15;45.77
46291;BME280;32023;44.444;26.006;2023-07-13T07:14:03;100287.91;;;31.26;45.36
46291;BME280;32023;44.444;26.006;2023-07-13T07:16:34;100287.13;;;31.39;45.04
46291;BME280;32023;44.444;26.006;2023-07-13T07:19:06;100271.72;;;31.55;45.03
46291;BME280;32023;44.444;26.006;2023-07-13T07:21:39;100283.56;;;31.71;44.75
46291;BME280;32023;44.444;26.006;2023-07-13T07:24:20;100278.69;;;31.82;44.68
46291;BME280;32023;44.444;26.006;2023-07-13T07:26:52;100282.38;;;31.96;44.13
46291;BME280;32023;44.444;26.006;2023-07-13T07:29:24;100271.81;;;32.11;43.16
46291;BME280;32023;44.444;26.006;2023-07-13T07:31:53;100274.25;;;32.23;42.59
46291;BME280;32023;44.444;26.006;2023-07-13T07:34:22;100276.69;;;32.35;42.31
46291;BME280;32023;44.444;26.006;2023-07-13T07:36:54;100274.63;;;32.43;43.05
46291;BME280;32023;44.444;26.006;2023-07-13T07:39:51;100279.09;;;32.62;42.88
46291;BME280;32023;44.444;26.006;2023-07-13T07:42:27;100274.56;;;32.82;42.85
46291;BME280;32023;44.444;26.006;2023-07-13T07:45:08;100282.66;;;32.94;42.16
46291;BME280;32023;44.444;26.006;2023-07-13T07:47:55;100287.13;;;33.02;41.37
46291;BME280;32023;44.444;26.006;2023-07-13T07:51:06;100285.47;;;33.01;41.82
46291;BME280;32023;44.444;26.006;2023-07-13T07:54:09;100289.13;;;33.19;41.35
46291;BME280;32023;44.444;26.006;2023-07-13T07:56:39;100287.00;;;33.37;41.00
46291;BME280;32023;44.444;26.006;2023-07-13T07:59:16;100277.06;;;33.60;40.02
46291;BME280;32023;44.444;26.006;2023-07-13T08:02:11;100281.84;;;33.77;39.37
46291;BME280;32023;44.444;26.006;2023-07-13T08:04:56;100283.38;;;33.92;39.32
46291;BME280;32023;44.444;26.006;2023-07-13T08:07:38;100279.56;;;34.09;39.27
46291;BME280;32023;44.444;26.006;2023-07-13T08:10:13;100284.00;;;34.21;39.06
46291;BME280;32023;44.444;26.006;2023-07-13T08:22:14;100277.88;;;34.60;38.27
46291;BME280;32023;44.444;26.006;2023-07-13T08:24:52;100271.66;;;34.72;38.43
46291;BME280;32023;44.444;26.006;2023-07-13T08:27:38;100274.47;;;34.75;37.86
46291;BME280;32023;44.444;26.006;2023-07-13T08:30:17;100276.63;;;34.64;38.00
46291;BME280;32023;44.444;26.006;2023-07-13T08:33:12;100275.59;;;34.85;37.65
46291;BME280;32023;44.444;26.006;2023-07-13T08:36:04;100269.88;;;35.19;37.33
46291;BME280;32023;44.444;26.006;2023-07-13T08:38:54;100266.94;;;35.53;37.08
46291;BME280;32023;44.444;26.006;2023-07-13T08:41:35;100266.06;;;35.56;36.30
46291;BME280;32023;44.444;26.006;2023-07-13T08:44:03;100266.66;;;35.44;36.37
46291;BME280;32023;44.444;26.006;2023-07-13T08:46:38;100276.78;;;35.21;37.08
46291;BME280;32023;44.444;26.006;2023-07-13T08:49:31;100267.59;;;35.03;37.31
46291;BME280;32023;44.444;26.006;2023-07-13T08:59:34;100273.75;;;35.89;35.93
46291;BME280;32023;44.444;26.006;2023-07-13T09:15:55;100272.19;;;36.35;35.34
46291;BME280;32023;44.444;26.006;2023-07-13T09:18:45;100278.94;;;36.25;35.61
46291;BME280;32023;44.444;26.006;2023-07-13T09:21:32;100274.69;;;36.33;35.30
46291;BME280;32023;44.444;26.006;2023-07-13T09:24:37;100279.56;;;36.59;35.41
46291;BME280;32023;44.444;26.006;2023-07-13T09:33:32;100281.66;;;37.73;32.19
46291;BME280;32023;44.444;26.006;2023-07-13T09:36:21;100273.28;;;38.15;31.39
46291;BME280;32023;44.444;26.006;2023-07-13T09:39:15;100271.34;;;38.57;31.23
46291;BME280;32023;44.444;26.006;2023-07-13T09:42:18;100272.09;;;38.89;30.84
46291;BME280;32023;44.444;26.006;2023-07-13T09:47:32;100258.63;;;38.99;30.55
46291;BME280;32023;44.444;26.006;2023-07-13T09:50:03;100260.75;;;38.82;30.48
46291;BME280;32023;44.444;26.006;2023-07-13T09:52:49;100268.31;;;38.92;30.17
46291;BME280;32023;44.444;26.006;2023-07-13T09:55:37;100262.38;;;39.25;28.74
46291;BME280;32023;44.444;26.006;2023-07-13T09:58:26;100269.63;;;39.58;28.44
46291;BME280;32023;44.444;26.006;2023-07-13T10:01:04;100258.63;;;40.04;28.48
46291;BME280;32023;44.444;26.006;2023-07-13T10:03:35;100251.91;;;40.45;27.99
46291;BME280;32023;44.444;26.006;2023-07-13T10:06:50;100264.09;;;40.61;27.29
46291;BME280;32023;44.444;26.006;2023-07-13T10:09:31;100263.41;;;40.57;27.56
46291;BME280;32023;44.444;26.006;2023-07-13T10:12:14;100261.69;;;40.60;26.62
46291;BME280;32023;44.444;26.006;2023-07-13T10:14:42;100263.22;;;40.73;26.05
46291;BME280;32023;44.444;26.006;2023-07-13T10:17:14;100270.31;;;40.94;25.47
46291;BME280;32023;44.444;26.006;2023-07-13T10:19:52;100257.63;;;40.57;26.42
46291;BME280;32023;44.444;26.006;2023-07-13T10:25:24;100243.72;;;42.59;24.55
46291;BME280;32023;44.444;26.006;2023-07-13T10:28:29;100239.19;;;43.73;22.90
46291;BME280;32023;44.444;26.006;2023-07-13T10:30:57;100231.72;;;44.99;21.67
46291;BME280;32023;44.444;26.006;2023-07-13T10:38:49;100215.53;;;46.87;19.14
46291;BME280;32023;44.444;26.006;2023-07-13T10:41:35;100201.91;;;47.30;18.43
46291;BME280;32023;44.444;26.006;2023-07-13T10:44:39;100206.53;;;47.74;17.56
46291;BME280;32023;44.444;26.006;2023-07-13T10:47:19;100188.44;;;48.77;16.74
46291;BME280;32023;44.444;26.006;2023-07-13T10:49:48;100191.72;;;49.46;16.08
46291;BME280;32023;44.444;26.006;2023-07-13T10:52:51;100195.91;;;49.95;15.40
46291;BME280;32023;44.444;26.006;2023-07-13T10:58:41;100178.97;;;52.11;13.69
46291;BME280;32023;44.444;26.006;2023-07-13T11:01:22;100179.75;;;52.73;13.18
46291;BME280;32023;44.444;26.006;2023-07-13T11:04:08;100173.94;;;52.06;13.64
46291;BME280;32023;44.444;26.006;2023-07-13T11:06:45;100170.84;;;51.44;14.40
46291;BME280;32023;44.444;26.006;2023-07-13T11:09:59;100163.69;;;51.40;14.13
46291;BME280;32023;44.444;26.006;2023-07-13T11:12:51;100162.47;;;50.31;15.24
46291;BME280;32023;44.444;26.006;2023-07-13T11:18:23;100147.00;;;46.77;17.70
46291;BME280;32023;44.444;26.006;2023-07-13T11:21:16;100155.69;;;45.71;18.54
46291;BME280;32023;44.444;26.006;2023-07-13T11:33:45;100148.91;;;42.05;22.65
46291;BME280;32023;44.444;26.006;2023-07-13T11:39:38;100143.34;;;41.61;22.65
46291;BME280;32023;44.444;26.006;2023-07-13T11:42:21;100129.78;;;41.40;23.18
46291;BME280;32023;44.444;26.006;2023-07-13T11:44:52;100123.53;;;41.11;23.40
46291;BME280;32023;44.444;26.006;2023-07-13T11:47:22;100131.00;;;41.30;23.50
46291;BME280;32023;44.444;26.006;2023-07-13T11:49:55;100113.34;;;40.97;23.93
46291;BME280;32023;44.444;26.006;2023-07-13T11:52:34;100120.09;;;40.51;24.31
46291;BME280;32023;44.444;26.006;2023-07-13T11:55:22;100119.00;;;40.14;24.74
46291;BME280;32023;44.444;26.006;2023-07-13T11:58:01;100113.25;;;40.57;24.21
46291;BME280;32023;44.444;26.006;2023-07-13T12:00:41;100112.69;;;40.50;23.65
46291;BME280;32023;44.444;26.006;2023-07-13T12:03:20;100112.81;;;40.46;24.05
46291;BME280;32023;44.444;26.006;2023-07-13T12:08:42;100107.50;;;40.23;24.26
46291;BME280;32023;44.444;26.006;2023-07-13T12:11:19;100104.69;;;40.10;24.47
46291;BME280;32023;44.444;26.006;2023-07-13T12:13:56;100110.63;;;40.28;24.77
46291;BME280;32023;44.444;26.006;2023-07-13T12:16:36;100101.28;;;40.46;24.46
46291;BME280;32023;44.444;26.006;2023-07-13T12:19:27;100104.38;;;40.52;24.62
46291;BME280;32023;44.444;26.006;2023-07-13T12:22:14;100102.63;;;40.54;23.69
46291;BME280;32023;44.444;26.006;2023-07-13T12:24:57;100094.69;;;40.46;24.35
46291;BME280;32023;44.444;26.006;2023-07-13T12:27:57;100099.56;;;40.49;25.18
46291;BME280;32023;44.444;26.006;2023-07-13T12:42:34;100074.31;;;40.40;24.11
46291;BME280;32023;44.444;26.006;2023-07-13T12:49:05;100080.66;;;40.13;23.84
46291;BME280;32023;44.444;26.006;2023-07-13T12:51:50;100088.09;;;40.02;24.23
46291;BME280;32023;44.444;26.006;2023-07-13T12:54:59;100085.72;;;39.87;24.78
46291;BME280;32023;44.444;26.006;2023-07-13T12:58:06;100027.63;;;39.64;24.78
46291;BME280;32023;44.444;26.006;2023-07-13T13:01:01;100079.16;;;40.09;24.27
46291;BME280;32023;44.444;26.006;2023-07-13T13:03:51;100076.25;;;40.21;24.38
46291;BME280;32023;44.444;26.006;2023-07-13T13:10:30;100053.44;;;40.14;23.65
46291;BME280;32023;44.444;26.006;2023-07-13T13:19:35;100041.50;;;39.56;24.23
46291;BME280;32023;44.444;26.006;2023-07-13T13:22:50;100030.84;;;39.31;24.52
46291;BME280;32023;44.444;26.006;2023-07-13T13:26:21;100048.38;;;39.12;24.30
46291;BME280;32023;44.444;26.006;2023-07-13T13:29:41;100033.97;;;39.12;24.40
46291;BME280;32023;44.444;26.006;2023-07-13T13:35:46;100023.91;;;39.29;24.46
46291;BME280;32023;44.444;26.006;2023-07-13T13:38:35;100015.03;;;39.36;24.76
46291;BME280;32023;44.444;26.006;2023-07-13T13:41:11;100021.22;;;39.47;24.59
46291;BME280;32023;44.444;26.006;2023-07-13T13:43:40;100006.56;;;39.54;24.50
46291;BME280;32023;44.444;26.006;2023-07-13T14:20:02;99989.47;;;39.13;24.33
46291;BME280;32023;44.444;26.006;2023-07-13T14:28:36;99982.78;;;39.16;23.66
46291;BME280;32023;44.444;26.006;2023-07-13T14:43:48;99981.88;;;39.06;24.23
46291;BME280;32023;44.444;26.006;2023-07-13T14:49:34;99986.50;;;39.04;24.13
46291;BME280;32023;44.444;26.006;2023-07-13T14:52:20;99977.53;;;39.02;24.05
46291;BME280;32023;44.444;26.006;2023-07-13T14:54:48;99980.41;;;39.02;24.67
46291;BME280;32023;44.444;26.006;2023-07-13T14:57:16;99978.78;;;39.00;24.39
46291;BME280;32023;44.444;26.006;2023-07-13T14:59:51;99974.84;;;38.94;24.25
46291;BME280;32023;44.444;26.006;2023-07-13T15:02:36;99976.56;;;38.79;24.44
46291;BME280;32023;44.444;26.006;2023-07-13T15:05:14;99970.84;;;38.92;24.37
46291;BME280;32023;44.444;26.006;2023-07-13T15:08:11;99970.03;;;38.91;24.93
46291;BME280;32023;44.444;26.006;2023-07-13T15:10:54;99974.63;;;38.76;24.41
46291;BME280;32023;44.444;26.006;2023-07-13T15:13:26;99975.78;;;38.66;24.19
46291;BME280;32023;44.444;26.006;2023-07-13T15:16:00;99965.44;;;38.56;23.93
46291;BME280;32023;44.444;26.006;2023-07-13T15:18:30;99958.28;;;38.48;24.21
46291;BME280;32023;44.444;26.006;2023-07-13T15:21:22;99961.84;;;38.39;24.28
46291;BME280;32023;44.444;26.006;2023-07-13T15:24:21;99958.59;;;38.37;24.22
46291;BME280;32023;44.444;26.006;2023-07-13T15:27:08;99957.78;;;38.37;24.68
46291;BME280;32023;44.444;26.006;2023-07-13T15:37:24;99947.63;;;38.20;25.32
46291;BME280;32023;44.444;26.006;2023-07-13T15:41:00;99944.75;;;38.07;24.79
46291;BME280;32023;44.444;26.006;2023-07-13T16:20:22;99908.03;;;37.41;25.47
46291;BME280;32023;44.444;26.006;2023-07-13T16:36:57;99914.28;;;37.23;25.82
46291;BME280;32023;44.444;26.006;2023-07-13T16:42:54;99901.47;;;37.11;25.89
46291;BME280;32023;44.444;26.006;2023-07-13T16:45:30;99899.84;;;37.10;26.45
46291;BME280;32023;44.444;26.006;2023-07-13T16:48:21;99903.63;;;37.07;25.98
46291;BME280;32023;44.444;26.006;2023-07-13T16:55:10;99893.03;;;36.88;26.82
46291;BME280;32023;44.444;26.006;2023-07-13T16:58:24;99886.34;;;36.79;27.26
46291;BME280;32023;44.444;26.006;2023-07-13T17:01:37;99924.00;;;36.64;27.19
46291;BME280;32023;44.444;26.006;2023-07-13T17:10:41;99899.28;;;36.35;27.79
46291;BME280;32023;44.444;26.006;2023-07-13T17:13:38;99904.47;;;36.24;27.58
46291;BME280;32023;44.444;26.006;2023-07-13T17:29:43;99914.03;;;35.58;29.56
46291;BME280;32023;44.444;26.006;2023-07-13T17:32:59;99922.19;;;35.40;29.72
46291;BME280;32023;44.444;26.006;2023-07-13T17:35:36;99917.91;;;35.28;29.78
46291;BME280;32023;44.444;26.006;2023-07-13T17:48:43;99943.56;;;34.62;30.61
46291;BME280;32023;44.444;26.006;2023-07-13T17:51:56;99951.88;;;34.53;30.63
46291;BME280;32023;44.444;26.006;2023-07-13T18:01:54;99970.44;;;34.41;31.28
46291;BME280;32023;44.444;26.006;2023-07-13T18:04:36;99963.59;;;34.35;31.41